Map

Track Data

SID SEASON NUMBER BASIN SUBBASIN NAME ISO_TIME NATURE LAT LON WMO_WIND WMO_PRES WMO_AGENCY TRACK_TYPE DIST2LAND LANDFALL IFLAG USA_AGENCY USA_ATCF_ID USA_LAT USA_LON USA_RECORD USA_STATUS USA_WIND USA_PRES USA_SSHS USA_R34_NE USA_R34_SE USA_R34_SW USA_R34_NW USA_R50_NE USA_R50_SE USA_R50_SW USA_R50_NW USA_R64_NE USA_R64_SE USA_R64_SW USA_R64_NW USA_POCI USA_ROCI USA_RMW USA_EYE TOKYO_LAT TOKYO_LON TOKYO_GRADE TOKYO_WIND TOKYO_PRES TOKYO_R50_DIR TOKYO_R50_LONG TOKYO_R50_SHORT TOKYO_R30_DIR TOKYO_R30_LONG TOKYO_R30_SHORT TOKYO_LAND CMA_LAT CMA_LON CMA_CAT CMA_WIND CMA_PRES HKO_LAT HKO_LON HKO_CAT HKO_WIND HKO_PRES NEWDELHI_LAT NEWDELHI_LON NEWDELHI_GRADE NEWDELHI_WIND NEWDELHI_PRES NEWDELHI_CI NEWDELHI_DP NEWDELHI_POCI REUNION_LAT REUNION_LON REUNION_TYPE REUNION_WIND REUNION_PRES REUNION_TNUM REUNION_CI REUNION_RMW REUNION_R34_NE REUNION_R34_SE REUNION_R34_SW REUNION_R34_NW REUNION_R50_NE REUNION_R50_SE REUNION_R50_SW REUNION_R50_NW REUNION_R64_NE REUNION_R64_SE REUNION_R64_SW REUNION_R64_NW BOM_LAT BOM_LON BOM_TYPE BOM_WIND BOM_PRES BOM_TNUM BOM_CI BOM_RMW BOM_R34_NE BOM_R34_SE BOM_R34_SW BOM_R34_NW BOM_R50_NE BOM_R50_SE BOM_R50_SW BOM_R50_NW BOM_R64_NE BOM_R64_SE BOM_R64_SW BOM_R64_NW BOM_ROCI BOM_POCI BOM_EYE BOM_POS_METHOD BOM_PRES_METHOD NADI_LAT NADI_LON NADI_CAT NADI_WIND NADI_PRES WELLINGTON_LAT WELLINGTON_LON WELLINGTON_WIND WELLINGTON_PRES DS824_LAT DS824_LON DS824_STAGE DS824_WIND DS824_PRES TD9636_LAT TD9636_LON TD9636_STAGE TD9636_WIND TD9636_PRES TD9635_LAT TD9635_LON TD9635_WIND TD9635_PRES TD9635_ROCI NEUMANN_LAT NEUMANN_LON NEUMANN_CLASS NEUMANN_WIND NEUMANN_PRES MLC_LAT MLC_LON MLC_CLASS MLC_WIND MLC_PRES USA_GUST BOM_GUST BOM_GUST_PER REUNION_GUST REUNION_GUST_PER USA_SEAHGT USA_SEARAD_NE USA_SEARAD_SE USA_SEARAD_SW USA_SEARAD_NW STORM_SPEED STORM_DIR
1915211N17116 1915 21 WP MM NOT_NAMED 1915-07-30 10:00:00 NR 16.7000 116.300 main 371 371 __________O___ -1 16.7000 116.300 4 3 272
1915211N17116 1915 21 WP MM NOT_NAMED 1915-07-30 12:00:00 NR 16.7032 116.205 main 381 381 __________P___ -1 16.7032 116.205 4 3 272
1915211N17116 1915 21 WP MM NOT_NAMED 1915-07-30 15:00:00 NR 16.7068 116.054 main 392 402 __________P___ -1 16.7068 116.054 4 3 271
1915211N17116 1915 21 WP MM NOT_NAMED 1915-07-30 18:00:00 NR 16.7073 115.883 main 413 413 __________P___ -1 16.7073 115.883 4 4 269
1915211N17116 1915 21 WP MM NOT_NAMED 1915-07-30 21:00:00 NR 16.7029 115.678 main 434 434 __________P___ -1 16.7029 115.678 4 4 268
1915211N17116 1915 21 WP MM NOT_NAMED 1915-07-30 22:00:00 NR 16.7000 115.600 main 444 444 __________O___ -1 16.7000 115.600 4 5 267
1915211N17116 1915 21 WP MM NOT_NAMED 1915-07-31 00:00:00 NR 16.6922 115.428 main 465 465 __________P___ -1 16.6922 115.428 4 5 267
1915211N17116 1915 21 WP MM NOT_NAMED 1915-07-31 03:00:00 NR 16.6803 115.140 main 497 497 __________P___ -1 16.6803 115.140 4 6 268
1915211N17116 1915 21 WP MM NOT_NAMED 1915-07-31 06:00:00 NR 16.6764 114.827 main 512 484 __________P___ -1 16.6764 114.827 4 6 271
1915211N17116 1915 21 WP MM NOT_NAMED 1915-07-31 09:00:00 NR 16.6900 114.506 main 484 475 __________P___ -1 16.6900 114.506 4 6 273
1915211N17116 1915 21 WP MM NOT_NAMED 1915-07-31 10:00:00 NR 16.7000 114.400 main 475 456 __________O___ -1 16.7000 114.400 4 6 280
1915211N17116 1915 21 WP MM NOT_NAMED 1915-07-31 12:00:00 NR 16.7407 114.192 main 456 423 __________P___ -1 16.7407 114.192 4 6 284
1915211N17116 1915 21 WP MM NOT_NAMED 1915-07-31 15:00:00 NR 16.8209 113.881 main 423 390 __________P___ -1 16.8209 113.881 4 6 286
1915211N17116 1915 21 WP MM NOT_NAMED 1915-07-31 18:00:00 NR 16.9074 113.577 main 390 358 __________P___ -1 16.9074 113.577 4 6 286
1915211N17116 1915 21 WP MM NOT_NAMED 1915-07-31 21:00:00 NR 16.9814 113.290 main 358 349 __________P___ -1 16.9814 113.290 4 6 284
1915211N17116 1915 21 WP MM NOT_NAMED 1915-07-31 22:00:00 NR 17.0000 113.200 main 349 332 __________O___ -1 17.0000 113.200 4 5 278
1915211N17116 1915 21 WP MM NOT_NAMED 1915-08-01 00:00:00 NR 17.0143 113.038 main 332 315 __________P___ -1 17.0143 113.038 4 4 273
1915211N17116 1915 21 WP MM NOT_NAMED 1915-08-01 03:00:00 NR 17.0169 112.814 main 315 299 __________P___ -1 17.0169 112.814 4 4 269
1915211N17116 1915 21 WP MM NOT_NAMED 1915-08-01 06:00:00 NR 17.0081 112.599 main 299 284 __________P___ -1 17.0081 112.599 4 4 268
1915211N17116 1915 21 WP MM NOT_NAMED 1915-08-01 09:00:00 NR 17.0002 112.378 main 284 276 __________P___ -1 17.0002 112.378 4 4 268
1915211N17116 1915 21 WP MM NOT_NAMED 1915-08-01 10:00:00 NR 17.0000 112.300 main 276 261 __________O___ -1 17.0000 112.300 4 5 263
1915211N17116 1915 21 WP MM NOT_NAMED 1915-08-01 12:00:00 NR 16.9691 112.112 main 261 250 __________P___ -1 16.9691 112.112 4 6 261
1915211N17116 1915 21 WP MM NOT_NAMED 1915-08-01 15:00:00 NR 16.9281 111.817 main 250 231 __________P___ -1 16.9281 111.817 4 6 267
1915211N17116 1915 21 WP MM NOT_NAMED 1915-08-01 18:00:00 NR 16.9351 111.530 main 231 208 __________P___ -1 16.9351 111.530 4 5 282
1915211N17116 1915 21 WP MM NOT_NAMED 1915-08-01 21:00:00 NR 17.0369 111.274 main 208 193 __________P___ -1 17.0369 111.274 4 5 298
1915211N17116 1915 21 WP MM NOT_NAMED 1915-08-01 22:00:00 NR 17.1000 111.200 main 193 169 __________O___ -1 17.1000 111.200 4 6 322
1915211N17116 1915 21 WP MM NOT_NAMED 1915-08-02 00:00:00 NR 17.2892 111.072 main 169 123 __________P___ -1 17.2892 111.072 4 8 335
1915211N17116 1915 21 WP MM NOT_NAMED 1915-08-02 03:00:00 NR 17.6741 110.918 main 123 79 __________P___ -1 17.6741 110.918 4 9 343
1915211N17116 1915 21 WP MM NOT_NAMED 1915-08-02 06:00:00 NR 18.1384 110.803 main 79 30 __________P___ -1 18.1384 110.803 4 10 349
1915211N17116 1915 21 WP MM NOT_NAMED 1915-08-02 09:00:00 NR 18.6353 110.721 main 30 21 __________P___ -1 18.6353 110.721 4 10 351
1915211N17116 1915 21 WP MM NOT_NAMED 1915-08-02 10:00:00 NR 18.8000 110.700 main 21 10 __________O___ -1 18.8000 110.700 4 10 353
1915211N17116 1915 21 WP MM NOT_NAMED 1915-08-02 12:00:00 NR 19.1231 110.658 main 15 0 __________P___ -1 19.1231 110.658 4 10 354
1915211N17116 1915 21 WP MM NOT_NAMED 1915-08-02 15:00:00 NR 19.6147 110.619 main 0 0 __________P___ -1 19.6147 110.619 4 10 356
1915211N17116 1915 21 WP MM NOT_NAMED 1915-08-02 18:00:00 NR 20.0814 110.603 main 0 0 __________P___ -1 20.0814 110.603 4 9 358
1915211N17116 1915 21 WP MM NOT_NAMED 1915-08-02 21:00:00 NR 20.4856 110.600 main 10 10 __________P___ -1 20.4856 110.600 4 8 358
1915211N17116 1915 21 WP MM NOT_NAMED 1915-08-02 22:00:00 NR 20.6000 110.600 main 15 15 __________O___ -1 20.6000 110.600 4 6 0
1915211N17116 1915 21 WP MM NOT_NAMED 1915-08-03 00:00:00 NR 20.7794 110.599 main 23 22 __________P___ -1 20.7794 110.599 4 5 2
1915211N17116 1915 21 WP MM NOT_NAMED 1915-08-03 03:00:00 NR 20.9792 110.605 main 22 11 __________P___ -1 20.9792 110.605 4 3 2
1915211N17116 1915 21 WP MM NOT_NAMED 1915-08-03 06:00:00 NR 21.1264 110.610 main 11 0 __________P___ -1 21.1264 110.610 4 3 5
1915211N17116 1915 21 WP MM NOT_NAMED 1915-08-03 09:00:00 NR 21.2552 110.605 main 0 0 __________P___ -1 21.2552 110.605 4 3 0
1915211N17116 1915 21 WP MM NOT_NAMED 1915-08-03 10:00:00 NR 21.3000 110.600 main 0 0 __________O___ -1 21.3000 110.600 4 3 0
1915211N17116 1915 21 WP MM NOT_NAMED 1915-08-03 12:00:00 NR 21.4192 110.594 main 0 0 __________P___ -1 21.4192 110.594 4 4 356
1915211N17116 1915 21 WP MM NOT_NAMED 1915-08-03 15:00:00 NR 21.5981 110.572 main 0 0 __________P___ -1 21.5981 110.572 4 4 348
1915211N17116 1915 21 WP MM NOT_NAMED 1915-08-03 18:00:00 NR 21.7744 110.525 main 0 0 __________P___ -1 21.7744 110.525 4 4 340
1915211N17116 1915 21 WP MM NOT_NAMED 1915-08-03 21:00:00 NR 21.9450 110.439 main 0 0 __________P___ -1 21.9450 110.439 4 4 332
1915211N17116 1915 21 WP MM NOT_NAMED 1915-08-03 22:00:00 NR 22.0000 110.400 main 0 0 __________O___ -1 22.0000 110.400 2 4 326
1915211N17116 1915 21 WP MM NOT_NAMED 1915-08-04 00:00:00 NR 22.1214 110.309 main 0 0 __________P___ -1 22.1214 110.309 2 5 320
1915211N17116 1915 21 WP MM NOT_NAMED 1915-08-04 03:00:00 NR 22.2976 110.135 main 0 0 __________P___ -1 22.2976 110.135 2 5 313
1915211N17116 1915 21 WP MM NOT_NAMED 1915-08-04 06:00:00 NR 22.4528 109.923 main 0 0 __________P___ -1 22.4528 109.923 2 5 303
1915211N17116 1915 21 WP MM NOT_NAMED 1915-08-04 09:00:00 NR 22.5713 109.684 main 0 0 __________P___ -1 22.5713 109.684 2 5 296
1915211N17116 1915 21 WP MM NOT_NAMED 1915-08-04 10:00:00 NR 22.6000 109.600 main 0 0 __________O___ -1 22.6000 109.600 2 5 286
1915211N17116 1915 21 WP MM NOT_NAMED 1915-08-04 12:00:00 NR 22.6392 109.427 main 0 0 __________P___ -1 22.6392 109.427 2 5 278
1915211N17116 1915 21 WP MM NOT_NAMED 1915-08-04 15:00:00 NR 22.6594 109.157 main 0 0 __________P___ -1 22.6594 109.157 2 5 271
1915211N17116 1915 21 WP MM NOT_NAMED 1915-08-04 18:00:00 NR 22.6458 108.878 main 0 0 __________P___ -1 22.6458 108.878 2 5 265
1915211N17116 1915 21 WP MM NOT_NAMED 1915-08-04 21:00:00 NR 22.6129 108.595 main 0 0 __________P___ -1 22.6129 108.595 2 5 263
1915211N17116 1915 21 WP MM NOT_NAMED 1915-08-04 22:00:00 NR 22.6000 108.500 main 0 __________O___ -1 22.6000 108.500 7 5 262

Digital Typhoon Data and Search

About IBTrACS Database

This database is a web-friendly format of International Best Track Archive for Climate Stewardship (IBTrACS), a global best track data archive curated by NOAA dating back to 1842.

Updated: 2021-10-21